createdAt,value
2023-05-20T00:01:29.320Z,151766.22
2023-05-20T00:03:55.644Z,151734.47
2023-05-20T00:06:21.680Z,151721.78
2023-05-20T00:08:47.563Z,151762.38
2023-05-20T00:11:13.530Z,151710.38
2023-05-20T00:13:39.442Z,151745.84
2023-05-20T00:16:05.772Z,151721.78
2023-05-20T00:18:32.022Z,151743.31
2023-05-20T00:20:58.199Z,151735.72
2023-05-20T00:23:24.151Z,151768.72
2023-05-20T00:25:50.127Z,151711.69
2023-05-20T00:28:16.015Z,151654.63
2023-05-20T00:30:42.085Z,151678.72
2023-05-20T00:33:08.191Z,151690.09
2023-05-20T00:35:34.531Z,151716.72
2023-05-20T00:38:00.587Z,151729.41
2023-05-20T00:40:26.524Z,151696.47
2023-05-20T00:42:52.415Z,151691.38
2023-05-20T00:45:18.333Z,151705.31
2023-05-20T00:47:44.514Z,151704.06
2023-05-20T00:50:11.067Z,151676.19
2023-05-20T00:52:38.064Z,151652.09
2023-05-20T00:55:04.153Z,151640.72
2023-05-20T00:57:30.192Z,151629.31
2023-05-20T00:59:56.386Z,151596.38
2023-05-20T01:02:22.631Z,151588.78
2023-05-20T01:04:49.253Z,151593.84
2023-05-20T01:07:18.075Z,151602.69
2023-05-20T01:09:44.209Z,151572.34
2023-05-20T01:12:29.067Z,151557.13
2023-05-20T01:15:07.877Z,151540.66
2023-05-20T01:17:38.128Z,151500.16
2023-05-20T01:20:09.073Z,151502.69
2023-05-20T01:22:37.647Z,151502.69
2023-05-20T01:25:04.750Z,151538.13
2023-05-20T01:27:30.886Z,151520.41
2023-05-20T01:29:56.918Z,151496.38
2023-05-20T01:32:31.980Z,151527.97
2023-05-20T01:34:59.582Z,151517.88
2023-05-20T01:37:27.580Z,151484.94
2023-05-20T01:39:55.993Z,151454.53
2023-05-20T01:42:23.169Z,151515.34
2023-05-20T01:44:49.228Z,151519.13
2023-05-20T01:47:15.192Z,151544.44
2023-05-20T01:49:41.197Z,151567.28
2023-05-20T01:52:07.249Z,151565.97
2023-05-20T01:54:33.273Z,151535.59
2023-05-20T01:56:59.335Z,151520.41
2023-05-20T01:59:25.209Z,151560.91
2023-05-20T02:01:51.164Z,151520.41
2023-05-20T02:04:18.396Z,151495.06
2023-05-20T02:06:45.217Z,151515.34
2023-05-20T02:09:11.521Z,151548.25
2023-05-20T02:11:37.348Z,151538.13
2023-05-20T02:14:03.233Z,151520.41
2023-05-20T02:16:29.333Z,151527.97
2023-05-20T02:18:55.313Z,151530.50
2023-05-20T02:21:21.884Z,151486.22
2023-05-20T02:23:47.794Z,151487.47
2023-05-20T02:26:13.975Z,151482.41
2023-05-20T02:28:44.197Z,151428.00
2023-05-20T02:31:10.096Z,151417.84
2023-05-20T02:33:36.198Z,151436.81
2023-05-20T02:36:02.367Z,151397.59
2023-05-20T02:38:28.445Z,151383.66
2023-05-20T02:40:56.046Z,151397.59
2023-05-20T02:43:21.946Z,151378.59
2023-05-20T02:45:48.031Z,151374.81
2023-05-20T02:48:14.053Z,151364.69
2023-05-20T02:50:40.355Z,151402.66
2023-05-20T02:53:06.533Z,151439.34
2023-05-20T02:55:36.145Z,151455.81
2023-05-20T02:58:03.187Z,151429.25
2023-05-20T03:00:30.691Z,151448.25
2023-05-20T03:02:58.415Z,151444.44
2023-05-20T03:05:24.350Z,151435.56
2023-05-20T03:07:50.456Z,151459.66
2023-05-20T03:10:16.500Z,151421.63
2023-05-20T03:12:42.682Z,151398.84
2023-05-20T03:15:09.126Z,151401.38
2023-05-20T03:17:35.098Z,151392.53
2023-05-20T03:20:01.542Z,151407.75
2023-05-20T03:22:27.409Z,151387.50
2023-05-20T03:24:53.262Z,151401.38
2023-05-20T03:27:19.126Z,151407.75
2023-05-20T03:29:45.000Z,151379.88
2023-05-20T03:32:11.042Z,151374.81
2023-05-20T03:34:37.592Z,151398.84
2023-05-20T03:37:03.511Z,151396.34
2023-05-20T03:39:29.419Z,151400.13
2023-05-20T03:41:55.517Z,151392.53
2023-05-20T03:44:21.509Z,151371.03
2023-05-20T03:46:47.417Z,151373.56
2023-05-20T03:49:13.407Z,151352.00
2023-05-20T03:51:40.412Z,151371.03
2023-05-20T03:54:06.428Z,151377.34
2023-05-20T03:56:32.442Z,151354.56
2023-05-20T03:58:58.731Z,151327.94
2023-05-20T04:01:25.142Z,151349.44
2023-05-20T04:03:51.425Z,151326.66
2023-05-20T04:06:17.443Z,151338.06
2023-05-20T04:08:43.447Z,151332.97
2023-05-20T04:11:09.406Z,151373.56
2023-05-20T04:13:35.526Z,151365.94
2023-05-20T04:16:02.253Z,151340.59
2023-05-20T04:18:31.157Z,151307.69
2023-05-20T04:20:57.477Z,151360.88
2023-05-20T04:23:24.135Z,151331.72
2023-05-20T04:25:50.081Z,151349.44
2023-05-20T04:28:15.983Z,151378.59
2023-05-20T04:30:44.362Z,151379.88
2023-05-20T04:33:11.371Z,151425.47
2023-05-20T04:35:40.865Z,151444.44
2023-05-20T04:38:07.828Z,151426.72
2023-05-20T04:40:33.952Z,151407.75
2023-05-20T04:43:00.172Z,151431.78
2023-05-20T04:45:26.152Z,151473.53
2023-05-20T04:47:52.688Z,151474.81
2023-05-20T04:50:19.030Z,151491.25
2023-05-20T04:52:45.449Z,151479.91
2023-05-20T04:55:12.979Z,151449.50
2023-05-20T04:57:42.914Z,151471.00
2023-05-20T05:00:12.764Z,151490.00
2023-05-20T05:02:39.091Z,151517.88
2023-05-20T05:05:05.496Z,151529.25
2023-05-20T05:07:31.561Z,151517.88
2023-05-20T05:09:57.461Z,151524.19
2023-05-20T05:12:23.352Z,151534.34
2023-05-20T05:14:49.262Z,151496.38
2023-05-20T05:17:15.141Z,151511.50
2023-05-20T05:19:41.060Z,151526.72
2023-05-20T05:22:06.992Z,151476.06
2023-05-20T05:24:33.131Z,151509.00
2023-05-20T05:26:59.018Z,151569.81
2023-05-20T05:29:25.010Z,151552.06
2023-05-20T05:31:50.913Z,151576.13
2023-05-20T05:34:16.795Z,151564.69
2023-05-20T05:36:42.695Z,151538.13
2023-05-20T05:39:08.794Z,151538.13
2023-05-20T05:41:35.001Z,151560.91
2023-05-20T05:44:01.213Z,151587.53
2023-05-20T05:46:27.209Z,151581.16
2023-05-20T05:48:53.211Z,151593.84
2023-05-20T05:51:19.095Z,151650.84
2023-05-20T05:53:45.061Z,151620.44
2023-05-20T05:56:11.179Z,151633.09
2023-05-20T05:58:37.950Z,151650.84
2023-05-20T06:01:04.144Z,151654.63
2023-05-20T06:03:30.644Z,151635.63
2023-05-20T06:05:56.810Z,151631.84
2023-05-20T06:08:22.729Z,151687.56
2023-05-20T06:10:49.607Z,151705.31
2023-05-20T06:13:16.314Z,151681.25
2023-05-20T06:15:42.600Z,151661.00
2023-05-20T06:18:08.476Z,151623.00
2023-05-20T06:20:34.365Z,151662.25
2023-05-20T06:23:00.370Z,151682.53
2023-05-20T06:25:27.038Z,151740.78
2023-05-20T06:27:53.064Z,151744.56
2023-05-20T06:30:19.440Z,151699.00
2023-05-20T06:32:45.940Z,151700.25
2023-05-20T06:35:11.890Z,151754.78
2023-05-20T06:37:37.940Z,151770.00
2023-05-20T06:40:04.507Z,151813.06
2023-05-20T06:42:30.385Z,151804.22
2023-05-20T06:44:56.393Z,151782.63
2023-05-20T06:47:22.445Z,151780.09
2023-05-20T06:49:48.410Z,151859.97
2023-05-20T06:52:14.526Z,151895.47
2023-05-20T06:54:40.997Z,151879.00
2023-05-20T06:57:08.174Z,151915.75
2023-05-20T06:59:36.945Z,151889.09
2023-05-20T07:02:03.490Z,151913.22
2023-05-20T07:04:29.769Z,151952.50
2023-05-20T07:06:55.815Z,151965.19
2023-05-20T07:09:21.930Z,152050.13
2023-05-20T07:11:47.853Z,151998.13
2023-05-20T07:14:13.793Z,152009.56
2023-05-20T07:16:40.640Z,151991.81
2023-05-20T07:19:06.689Z,151993.06
2023-05-20T07:21:32.893Z,151962.63
2023-05-20T07:23:58.814Z,152021.00
2023-05-20T07:26:24.748Z,152033.63
2023-05-20T07:28:51.417Z,152079.31
2023-05-20T07:31:17.439Z,152080.56
2023-05-20T07:33:43.473Z,152099.66
2023-05-20T07:36:11.240Z,152113.63
2023-05-20T07:38:38.466Z,152132.63
2023-05-20T07:41:06.318Z,152150.41
2023-05-20T07:43:32.240Z,152150.41
2023-05-20T07:45:58.460Z,152198.63
2023-05-20T07:48:27.128Z,152196.03
2023-05-20T07:50:53.096Z,152184.66
2023-05-20T07:53:19.382Z,152197.31
2023-05-20T07:55:45.325Z,152234.09
2023-05-20T07:58:11.254Z,152284.84
2023-05-20T08:00:37.185Z,152312.78
2023-05-20T08:03:03.320Z,152289.97
2023-05-20T08:05:29.309Z,152284.84
2023-05-20T08:07:55.806Z,152314.06
2023-05-20T08:10:21.668Z,152264.56
2023-05-20T08:12:47.528Z,152260.75
2023-05-20T08:15:13.453Z,152269.63
2023-05-20T08:17:39.390Z,152234.09
2023-05-20T08:20:07.464Z,152268.34
2023-05-20T08:22:33.342Z,152262.03
2023-05-20T08:24:59.262Z,152302.63
2023-05-20T08:27:25.547Z,152284.84
2023-05-20T08:29:51.411Z,152286.13
2023-05-20T08:32:17.388Z,152284.84
2023-05-20T08:34:43.315Z,152243.00
2023-05-20T08:37:09.206Z,152236.66
2023-05-20T08:39:35.159Z,152284.84
2023-05-20T08:42:02.438Z,152283.59
2023-05-20T08:44:29.421Z,152309.00
2023-05-20T08:46:56.481Z,152253.16
2023-05-20T08:49:22.637Z,152269.63
2023-05-20T08:51:48.741Z,152305.16
2023-05-20T08:54:16.233Z,152270.94
2023-05-20T08:56:43.225Z,152239.19
2023-05-20T08:59:09.570Z,152231.56
2023-05-20T09:01:45.113Z,152250.59
2023-05-20T09:04:11.243Z,152243.00
2023-05-20T09:06:44.873Z,152255.69
2023-05-20T09:09:14.265Z,152281.06
2023-05-20T09:11:40.997Z,152312.78
2023-05-20T09:14:07.508Z,152328.03
2023-05-20T09:16:34.301Z,152307.75
2023-05-20T09:19:00.560Z,152307.75
2023-05-20T09:21:27.707Z,152303.88
2023-05-20T09:23:56.665Z,152296.28
2023-05-20T09:26:24.191Z,152353.41
2023-05-20T09:28:50.877Z,152329.31
2023-05-20T09:31:16.802Z,152330.56
2023-05-20T09:33:43.235Z,152339.44
2023-05-20T09:36:10.091Z,152269.63
2023-05-20T09:38:40.894Z,152336.91
2023-05-20T09:41:11.410Z,152344.53
2023-05-20T09:43:39.569Z,152368.63
2023-05-20T09:46:06.546Z,152368.63
2023-05-20T09:48:34.086Z,152388.94
2023-05-20T09:51:02.036Z,152468.94
2023-05-20T09:53:28.169Z,152446.09
2023-05-20T09:55:54.476Z,152493.09
2023-05-20T09:58:21.881Z,152508.34
2023-05-20T10:00:47.855Z,152540.06
2023-05-20T10:03:14.350Z,152615.03
2023-05-20T10:05:46.901Z,152679.78
2023-05-20T10:08:34.678Z,152607.38
2023-05-20T10:11:25.138Z,152622.63
2023-05-20T10:14:25.014Z,152637.88
2023-05-20T10:17:07.281Z,152695.03
2023-05-20T10:19:34.384Z,152742.13
2023-05-20T10:22:08.054Z,152836.13
2023-05-20T10:24:43.769Z,152914.91
2023-05-20T10:27:16.336Z,152837.41
2023-05-20T10:32:28.460Z,152925.09
2023-05-20T10:35:04.540Z,153020.50
2023-05-20T10:37:33.208Z,153024.31
2023-05-20T10:40:06.437Z,153012.88
2023-05-20T10:42:32.482Z,152987.44
2023-05-20T10:44:58.378Z,152927.66
2023-05-20T10:47:26.292Z,152884.41
2023-05-20T10:49:52.536Z,152825.94
2023-05-20T10:52:19.544Z,152838.66
2023-05-20T10:54:58.834Z,152766.22
2023-05-20T10:57:28.948Z,152763.69
2023-05-20T10:59:55.743Z,152782.75
2023-05-20T11:02:28.325Z,152770.03
2023-05-20T11:04:58.034Z,152798.00
2023-05-20T11:07:28.581Z,152815.81
2023-05-20T11:09:55.715Z,152902.19
2023-05-20T11:12:25.812Z,152987.44
2023-05-20T11:14:52.133Z,152997.63
2023-05-20T11:17:19.577Z,152978.56
2023-05-20T11:19:46.565Z,153002.69
2023-05-20T11:22:13.080Z,152954.31
2023-05-20T11:24:39.012Z,152892.06
2023-05-20T11:27:06.277Z,152917.47
2023-05-20T11:29:32.704Z,152987.44
2023-05-20T11:31:59.572Z,153002.69
2023-05-20T11:34:26.896Z,153042.09
2023-05-20T11:36:59.311Z,152974.72
2023-05-20T11:39:28.943Z,152961.97
2023-05-20T11:41:55.073Z,152937.78
2023-05-20T11:44:21.157Z,152930.19
2023-05-20T11:46:48.072Z,152899.66
2023-05-20T11:49:15.042Z,152862.81
2023-05-20T11:51:43.036Z,152806.88
2023-05-20T11:54:09.930Z,152753.50
2023-05-20T11:56:37.360Z,152687.44
2023-05-20T11:59:05.372Z,152675.97
2023-05-20T12:01:40.498Z,152687.44
2023-05-20T12:04:07.563Z,152740.84
2023-05-20T12:06:36.434Z,152744.66
2023-05-20T12:09:06.981Z,152794.16
2023-05-20T12:11:35.125Z,152698.88
2023-05-20T12:14:02.058Z,152683.59
2023-05-20T12:16:28.590Z,152754.78
2023-05-20T12:18:54.938Z,152799.28
2023-05-20T12:21:20.967Z,152831.06
2023-05-20T12:23:46.854Z,152885.72
2023-05-20T12:26:12.854Z,152925.09
2023-05-20T12:28:39.653Z,152992.50
2023-05-20T12:31:05.819Z,152963.25
2023-05-20T12:33:31.676Z,153026.84
2023-05-20T12:35:57.769Z,153081.53
2023-05-20T12:38:24.010Z,153119.66
2023-05-20T12:40:50.054Z,153108.25
2023-05-20T12:43:15.930Z,153064.97
2023-05-20T12:45:43.504Z,153024.31
2023-05-20T12:48:09.642Z,153071.38
2023-05-20T12:50:35.864Z,153051.03
2023-05-20T12:53:02.046Z,153101.91
2023-05-20T12:55:28.037Z,153143.88
2023-05-20T12:57:55.422Z,153178.22
2023-05-20T13:00:21.549Z,153183.28
2023-05-20T13:02:47.851Z,153232.97
2023-05-20T13:05:14.418Z,153226.56
2023-05-20T13:07:40.450Z,153175.69
2023-05-20T13:10:07.603Z,153110.78
2023-05-20T13:12:34.788Z,153120.97
2023-05-20T13:15:00.676Z,153020.50
2023-05-20T13:17:27.069Z,152988.69
2023-05-20T13:19:54.083Z,153014.16
2023-05-20T13:22:20.373Z,152958.16
2023-05-20T13:24:46.253Z,152912.38
2023-05-20T13:27:12.187Z,152839.94
2023-05-20T13:29:38.136Z,152810.69
2023-05-20T13:32:04.361Z,152866.66
2023-05-20T13:34:30.948Z,152842.47
2023-05-20T13:36:56.865Z,152834.88
2023-05-20T13:39:22.968Z,152809.44
2023-05-20T13:41:48.980Z,152773.84
2023-05-20T13:44:15.040Z,152776.41
2023-05-20T13:46:41.108Z,152772.56
2023-05-20T13:49:07.129Z,152753.50
2023-05-20T13:51:33.071Z,152705.25
2023-05-20T13:53:59.034Z,152737.00
2023-05-20T13:56:24.943Z,152757.31
2023-05-20T13:58:50.823Z,152761.16
2023-05-20T14:01:17.318Z,152753.50
2023-05-20T14:03:43.441Z,152729.38
2023-05-20T14:06:09.911Z,152748.44
2023-05-20T14:08:35.771Z,152763.69
2023-05-20T14:11:01.730Z,152781.50
2023-05-20T14:13:27.681Z,152828.47
2023-05-20T14:15:56.480Z,152763.69
2023-05-20T14:18:22.729Z,152758.63
2023-05-20T14:20:48.782Z,152804.34
2023-05-20T14:23:14.859Z,152791.63
2023-05-20T14:25:40.986Z,152772.56
2023-05-20T14:28:06.890Z,152754.78
2023-05-20T14:30:33.586Z,152714.13
2023-05-20T14:33:00.119Z,152724.31
2023-05-20T14:35:26.254Z,152645.47
2023-05-20T14:37:52.224Z,152622.63
2023-05-20T14:40:18.519Z,152632.81
2023-05-20T14:42:44.631Z,152658.19
2023-05-20T14:45:10.626Z,152667.06
2023-05-20T14:47:39.417Z,152637.88
2023-05-20T14:50:08.480Z,152620.09
2023-05-20T14:52:38.539Z,152653.13
2023-05-20T14:55:05.386Z,152597.25
2023-05-20T14:57:32.640Z,152630.22
2023-05-20T14:59:58.460Z,152640.41
2023-05-20T15:02:24.562Z,152641.69
2023-05-20T15:04:50.630Z,152628.97
2023-05-20T15:07:16.635Z,152632.81
2023-05-20T15:09:43.202Z,152622.63
2023-05-20T15:12:10.549Z,152646.75
2023-05-20T15:14:36.551Z,152645.47
2023-05-20T15:17:03.898Z,152631.50
2023-05-20T15:19:31.963Z,152631.50
2023-05-20T15:21:58.710Z,152609.91
2023-05-20T15:24:24.852Z,152632.81
2023-05-20T15:26:51.937Z,152623.91
2023-05-20T15:29:17.845Z,152583.25
2023-05-20T15:31:43.868Z,152583.25
2023-05-20T15:34:09.901Z,152548.97
2023-05-20T15:36:36.009Z,152543.91
2023-05-20T15:39:01.932Z,152528.66
2023-05-20T15:41:27.858Z,152526.13
2023-05-20T15:43:53.955Z,152517.22
2023-05-20T15:46:20.228Z,152488.03
2023-05-20T15:48:46.229Z,152528.66
2023-05-20T15:51:13.855Z,152571.81
2023-05-20T15:53:40.760Z,152538.78
2023-05-20T15:56:07.444Z,152527.38
2023-05-20T15:58:33.311Z,152505.81
2023-05-20T16:00:59.258Z,152521.00
2023-05-20T16:03:25.227Z,152583.25
2023-05-20T16:05:51.375Z,152630.22
2023-05-20T16:08:17.472Z,152628.97
2023-05-20T16:10:43.369Z,152668.38
2023-05-20T16:13:09.255Z,152693.75
2023-05-20T16:15:37.263Z,152719.22
2023-05-20T16:18:04.135Z,152696.34
2023-05-20T16:20:30.095Z,152702.69
2023-05-20T16:22:56.102Z,152656.94
2023-05-20T16:25:22.063Z,152641.69
2023-05-20T16:27:47.964Z,152637.88
2023-05-20T16:30:13.969Z,152597.25
2023-05-20T16:32:40.261Z,152579.47
2023-05-20T16:35:06.961Z,152587.06
2023-05-20T16:37:33.767Z,152589.59
2023-05-20T16:40:00.028Z,152589.59
2023-05-20T16:42:25.919Z,152576.88
2023-05-20T16:44:51.893Z,152541.38
2023-05-20T16:47:17.784Z,152512.16
2023-05-20T16:49:43.634Z,152541.38
2023-05-20T16:52:09.634Z,152524.84
2023-05-20T16:54:35.642Z,152509.63
2023-05-20T16:57:03.097Z,152541.38
2023-05-20T16:59:30.000Z,152554.03
2023-05-20T17:01:56.429Z,152578.19
2023-05-20T17:04:23.124Z,152568.00
2023-05-20T17:06:49.725Z,152546.44
2023-05-20T17:09:16.071Z,152554.03
2023-05-20T17:11:42.330Z,152515.94
2023-05-20T17:14:08.310Z,152485.47
2023-05-20T17:16:34.241Z,152507.09
2023-05-20T17:19:00.196Z,152518.47
2023-05-20T17:21:26.528Z,152510.88
2023-05-20T17:23:52.430Z,152500.69
2023-05-20T17:26:18.376Z,152543.91
2023-05-20T17:28:44.275Z,152508.34
2023-05-20T17:31:10.769Z,152535.00
2023-05-20T17:33:36.740Z,152507.09
2023-05-20T17:36:02.946Z,152523.59
2023-05-20T17:38:28.824Z,152545.16
2023-05-20T17:40:54.892Z,152576.88
2023-05-20T17:43:21.419Z,152654.41
2023-05-20T17:45:47.919Z,152702.69
2023-05-20T17:48:14.322Z,152696.34
2023-05-20T17:50:40.959Z,152651.88
2023-05-20T17:53:07.030Z,152678.50
2023-05-20T17:55:35.628Z,152721.75
2023-05-20T17:58:06.527Z,152742.13
2023-05-20T18:00:33.870Z,152698.88
2023-05-20T18:03:00.274Z,152642.94
2023-05-20T18:05:26.889Z,152580.72
2023-05-20T18:07:52.839Z,152607.38
2023-05-20T18:10:19.152Z,152583.25
2023-05-20T18:12:45.007Z,152560.41
2023-05-20T18:15:16.325Z,152543.91
2023-05-20T18:17:42.423Z,152537.53
2023-05-20T18:20:11.867Z,152557.84
2023-05-20T18:22:44.218Z,152546.44
2023-05-20T18:25:16.492Z,152485.47
2023-05-20T18:27:42.726Z,152503.22
2023-05-20T18:30:09.441Z,152480.38
2023-05-20T18:32:35.754Z,152428.34
2023-05-20T18:35:02.064Z,152414.34
2023-05-20T18:37:28.161Z,152416.94
2023-05-20T18:39:56.416Z,152396.53
2023-05-20T18:42:22.378Z,152369.91
2023-05-20T18:44:48.374Z,152385.16
2023-05-20T18:47:16.195Z,152380.06
2023-05-20T18:49:42.531Z,152371.16
2023-05-20T18:52:08.692Z,152338.16
2023-05-20T18:54:34.797Z,152349.59
2023-05-20T18:57:04.269Z,152339.44
2023-05-20T18:59:31.370Z,152348.34
2023-05-20T19:01:57.961Z,152320.38
2023-05-20T19:04:24.928Z,152326.78
2023-05-20T19:06:52.321Z,152288.69
2023-05-20T19:09:21.231Z,152251.84
2023-05-20T19:11:47.174Z,152268.34
2023-05-20T19:14:13.842Z,152241.72
2023-05-20T19:16:41.073Z,152249.31
2023-05-20T19:19:07.043Z,152212.53
2023-05-20T19:21:33.077Z,152202.41
2023-05-20T19:23:58.994Z,152180.84
2023-05-20T19:26:25.944Z,152170.69
2023-05-20T19:28:52.061Z,152155.44
2023-05-20T19:31:20.350Z,152166.88
2023-05-20T19:33:48.429Z,152127.56
2023-05-20T19:36:15.218Z,152125.00
2023-05-20T19:38:41.530Z,152133.91
2023-05-20T19:41:09.931Z,152125.00
2023-05-20T19:43:36.069Z,152127.56
2023-05-20T19:46:02.129Z,152132.63
2023-05-20T19:48:28.117Z,152156.72
2023-05-20T19:50:54.119Z,152140.22
2023-05-20T19:53:20.544Z,152141.50
2023-05-20T19:55:47.022Z,152147.88
2023-05-20T19:58:13.237Z,152147.88
2023-05-20T20:00:39.231Z,152142.75
2023-05-20T20:03:06.723Z,152117.41
2023-05-20T20:05:33.327Z,152105.97
2023-05-20T20:07:59.514Z,152128.84
2023-05-20T20:10:25.672Z,152126.31
2023-05-20T20:12:51.725Z,152111.09
2023-05-20T20:15:19.706Z,152081.84
2023-05-20T20:17:51.087Z,152084.38
2023-05-20T20:20:17.987Z,152076.78
2023-05-20T20:22:44.096Z,152075.50
2023-05-20T20:25:13.147Z,152071.66
2023-05-20T20:27:45.852Z,152085.63
2023-05-20T20:30:13.166Z,152081.84
2023-05-20T20:32:40.420Z,152083.09
2023-05-20T20:35:07.291Z,152083.09
2023-05-20T20:37:34.716Z,152050.13
2023-05-20T20:40:12.254Z,152056.50
2023-05-20T20:42:44.221Z,152059.03
2023-05-20T20:45:14.543Z,152046.31
2023-05-20T20:47:43.036Z,152059.03
2023-05-20T20:50:11.097Z,152009.56
2023-05-20T20:52:42.106Z,152010.81
2023-05-20T20:55:11.990Z,151996.88
2023-05-20T20:57:38.556Z,151988.00
2023-05-20T21:00:20.620Z,152010.81
2023-05-20T21:02:47.514Z,152018.47
2023-05-20T21:05:16.948Z,152028.56
2023-05-20T21:07:45.887Z,152026.03
2023-05-20T21:10:12.362Z,152018.47
2023-05-20T21:12:38.423Z,152017.16
2023-05-20T21:15:04.994Z,152021.00
2023-05-20T21:17:30.883Z,152027.31
2023-05-20T21:19:56.783Z,152019.72
2023-05-20T21:22:22.691Z,152014.63
2023-05-20T21:24:48.605Z,152005.75
2023-05-20T21:27:16.267Z,151960.09
2023-05-20T21:29:42.437Z,151939.81
2023-05-20T21:32:08.395Z,151932.22
2023-05-20T21:34:34.386Z,151925.88
2023-05-20T21:37:00.308Z,151923.34
2023-05-20T21:39:26.283Z,151924.59
2023-05-20T21:41:52.176Z,151934.75
2023-05-20T21:44:18.141Z,151953.78
2023-05-20T21:46:44.332Z,151966.47
2023-05-20T21:49:10.313Z,151938.56
2023-05-20T21:51:36.232Z,151942.34
2023-05-20T21:54:02.131Z,151904.31
2023-05-20T21:56:28.153Z,151882.78
2023-05-20T21:58:54.141Z,151875.19
2023-05-20T22:01:20.500Z,151876.47
2023-05-20T22:03:49.575Z,151889.09
2023-05-20T22:06:17.108Z,151879.00
2023-05-20T22:08:43.175Z,151890.38
2023-05-20T22:11:09.077Z,151868.81
2023-05-20T22:13:35.420Z,151877.72
2023-05-20T22:16:03.968Z,151876.47
2023-05-20T22:18:30.383Z,151856.19
2023-05-20T22:21:00.328Z,151853.59
2023-05-20T22:23:27.208Z,151867.56
2023-05-20T22:25:54.309Z,151865.03
2023-05-20T22:28:20.648Z,151885.31
2023-05-20T22:30:46.869Z,151867.56
2023-05-20T22:33:12.811Z,151847.28
2023-05-20T22:35:38.707Z,151857.44
2023-05-20T22:38:04.792Z,151851.09
2023-05-20T22:40:30.751Z,151849.81
2023-05-20T22:42:56.702Z,151832.06
2023-05-20T22:45:22.584Z,151842.22
2023-05-20T22:47:48.491Z,151815.59
2023-05-20T22:50:14.449Z,151775.06
2023-05-20T22:52:40.848Z,151785.22
2023-05-20T22:55:07.338Z,151796.59
2023-05-20T22:57:33.225Z,151771.25
2023-05-20T22:59:59.332Z,151794.06
2023-05-20T23:02:25.429Z,151797.84
2023-05-20T23:04:51.746Z,151816.84
2023-05-20T23:07:18.801Z,151828.28
2023-05-20T23:09:49.611Z,151848.56
2023-05-20T23:12:15.726Z,151828.28
2023-05-20T23:14:41.622Z,151835.88
2023-05-20T23:17:07.552Z,151846.03
2023-05-20T23:19:33.641Z,151819.38
2023-05-20T23:21:59.654Z,151780.09
2023-05-20T23:24:25.946Z,151804.22
2023-05-20T23:26:53.191Z,151814.31
2023-05-20T23:29:20.784Z,151819.38
2023-05-20T23:31:48.795Z,151830.81
2023-05-20T23:34:16.599Z,151843.50
2023-05-20T23:36:42.528Z,151839.72
2023-05-20T23:39:08.621Z,151837.13
2023-05-20T23:41:34.930Z,151820.69
2023-05-20T23:44:01.804Z,151791.53
2023-05-20T23:46:28.091Z,151800.38
2023-05-20T23:48:54.011Z,151804.22
2023-05-20T23:51:22.969Z,151770.00
2023-05-20T23:53:48.925Z,151756.03
2023-05-20T23:56:15.237Z,151758.56
2023-05-20T23:58:41.081Z,151754.78
